Aviation Digital Data Service (ADDS)

Output produced by METARs form (0527 UTC 22 November 2017)
found at http://bcaws.aviationweather.gov/adds/metars/
 
METAR text: KPAO 220447Z 29005KT 10SM SKC 15/13 A3015 RMK LAST
Conditions at: KPAO (PALO ALTO , CA, US) observed 0447 UTC 22 November 2017
Temperature: 15.0°C (59°F)
Dewpoint: 13.0°C (55°F) [RH = 88%]
Pressure (altimeter): 30.15 inches Hg (1021.1 mb)
Winds: from the WNW (290 degrees) at 6 MPH (5 knots; 2.6 m/s)
Visibility: 10 or more miles (16+ km)
Ceiling: at least 12,000 feet AGL
Clouds: clear skies
Weather: no significant weather observed at this time